Georg Jacob — A8XG5 — position and weather

sailwx.info

Track history (hours):
 
Tides and Currents Weather Stations Pressure Air Temp Water Temp Dewpoint Dewpoint Depression Visibility Wind Speed Wind Dir Waves Ship Positions

Georg Jacob

Last reported at 2018-Jan-10 23:48 UTC. Time now 2018-Jan-19 15:51 UTC.
Position N 28°10' W 016°12'.
Warning: this ship's position is 8 days out of date.

Length 229 m; draft 12.8 m.

Type: Ship. MMSI: 636092136.

Date/timePositionNaut miles runAvg speedWind from/ knotsBaromVisibWave heightAir tempDewpointWater temp
2018-Jan-10 23:48N 28°10' W 016°12'413.1
2018-Jan-10 23:30N 28°13' W 016°09'713.2
2018-Jan-10 23:00N 28°18' W 016°04'713.2
2018-Jan-10 22:30N 28°23' W 015°59'713.0
2018-Jan-10 22:00N 28°28' W 015°55'613.0
2018-Jan-10 21:30N 28°33' W 015°50'713.1
2018-Jan-10 21:00N 28°38' W 015°45'713.1
2018-Jan-10 20:30N 28°43' W 015°41'612.8
2018-Jan-10 20:00N 28°49' W 015°38'712.6
2018-Jan-10 19:29N 28°55' W 015°34'712.8
2018-Jan-10 18:55N 29°01' W 015°30'512.9
2018-Jan-10 18:30N 29°05' W 015°26'713.0
2018-Jan-10 17:59N 29°11' W 015°23'613.1
2018-Jan-10 17:30N 29°17' W 015°19'612.9
2018-Jan-10 17:00N 29°22' W 015°16'713.0
2018-Jan-10 16:30N 29°28' W 015°12'713.1
2018-Jan-10 16:00N 29°34' W 015°08'61612.4
2018-Jan-08 14:09N 35°57' W 005°35'210.7
2018-Jan-08 14:00N 35°58' W 005°34'510.0
2018-Jan-08 13:30N 35°60' W 005°28'5 9.6
2018-Jan-08 13:00N 36°02' W 005°22'4 7.3
2018-Jan-08 12:30N 36°04' W 005°19'1 1.4
2018-Jan-08 12:00N 36°04' W 005°19'1 2.9
2018-Jan-08 11:30N 36°04' W 005°21'1 2.1
2018-Jan-08 11:00N 36°04' W 005°22'1 1.8
2018-Jan-08 10:30N 36°04' W 005°21'4 7.2
2018-Jan-08 10:00N 36°04' W 005°16'510.5
2018-Jan-08 09:30N 36°04' W 005°10'9411.5
2018-Jan-08 01:16N 36°12' W 003°13'312.1
2018-Jan-08 01:00N 36°13' W 003°10'612.0
2018-Jan-08 00:30N 36°13' W 003°02'612.5
2018-Jan-08 00:00N 36°14' W 002°55'612.0
2018-Jan-07 23:30N 36°15' W 002°47'611.7
2018-Jan-07 23:00N 36°15' W 002°40'611.5
2018-Jan-07 22:30N 36°16' W 002°33'611.7
2018-Jan-07 22:00N 36°16' W 002°26'611.8
2018-Jan-07 21:30N 36°17' W 002°18'611.7
2018-Jan-07 21:00N 36°18' W 002°11'611.3
2018-Jan-07 20:30N 36°19' W 002°04'612.0
2018-Jan-07 20:00N 36°20' W 001°57'612.0
2018-Jan-07 19:30N 36°20' W 001°49'611.5
2018-Jan-07 19:00N 36°21' W 001°42'611.1
2018-Jan-07 18:30N 36°22' W 001°36'510.5
2018-Jan-07 18:00N 36°23' W 001°29'611.2
2018-Jan-07 17:30N 36°24' W 001°22'42111.6
2018-Jan-06 05:13N 37°32' E 007°17'312.9
2018-Jan-06 05:00N 37°33' E 007°21'613.2
2018-Jan-06 04:30N 37°34' E 007°29'713.4
2018-Jan-06 04:00N 37°34' E 007°37'713.4
2018-Jan-06 03:30N 37°35' E 007°46'713.0
2018-Jan-06 02:57N 37°36' E 007°55'612.8
2018-Jan-06 02:30N 37°37' E 008°02'5912.5
2018-Jan-05 21:46N 37°41' E 009°16'21911.5
2018-Jan-05 02:45N 36°40' E 013°41'312.0
2018-Jan-05 02:30N 36°39' E 013°44'711.6
2018-Jan-05 01:56N 36°37' E 013°52'511.1
2018-Jan-05 01:30N 36°36' E 013°58'511.0
2018-Jan-05 01:00N 36°34' E 014°04'611.0
2018-Jan-05 00:30N 36°32' E 014°11'510.6
2018-Jan-05 00:00N 36°31' E 014°17'611.2
2018-Jan-04 23:30N 36°29' E 014°24'611.5
2018-Jan-04 23:00N 36°27' E 014°30'611.2
2018-Jan-04 22:30N 36°26' E 014°37'611.2
2018-Jan-04 21:59N 36°26' E 014°44'41611.3
2018-Jan-03 09:09N 36°37' E 023°21'1513.5
2018-Jan-03 08:01N 36°50' E 023°31'013.6
2018-Jan-03 08:00N 36°50' E 023°31'813.6
2018-Jan-03 07:27N 36°57' E 023°36'613.6
2018-Jan-03 06:59N 37°02' E 023°40'813.5
2018-Jan-03 06:25N 37°09' E 023°45'813.7
2018-Jan-03 05:49N 37°16' E 023°51'513.6
2018-Jan-03 05:29N 37°20' E 023°54'613.1
2018-Jan-03 05:00N 37°25' E 023°58'713.1
2018-Jan-03 04:30N 37°30' E 024°03'713.7
2018-Jan-03 04:00N 37°36' E 024°07'713.3
2018-Jan-03 03:30N 37°42' E 024°11'612.6
2018-Jan-03 03:00N 37°46' E 024°17'612.8
2018-Jan-03 02:30N 37°50' E 024°24'612.9
2018-Jan-03 02:00N 37°54' E 024°30'712.9
2018-Jan-03 01:29N 37°59' E 024°36'1513.4
2018-Jan-03 00:24N 38°12' E 024°43'10012.9
2018-Jan-02 16:36N 39°42' E 025°40'513.1
2018-Jan-02 16:14N 39°47' E 025°43'  
Track history (hours):
 
Tides and Currents Weather Stations Pressure Air Temp Water Temp Dewpoint Dewpoint Depression Visibility Wind Speed Wind Dir Waves Ship Positions

Georg Jacob

Last reported at 2018-Jan-10 23:48 UTC. Time now 2018-Jan-19 15:51 UTC.
Position N 28°10' W 016°12'.
Warning: this ship's position is 8 days out of date.

Length 229 m; draft 12.8 m.

Type: Ship. MMSI: 636092136.

Date/timePositionNaut miles runAvg speedWind from/ knotsBaromVisibWave heightAir tempDewpointWater temp
2018-Jan-10 23:48N 28°10' W 016°12'413.1
2018-Jan-10 23:30N 28°13' W 016°09'713.2
2018-Jan-10 23:00N 28°18' W 016°04'713.2
2018-Jan-10 22:30N 28°23' W 015°59'713.0
2018-Jan-10 22:00N 28°28' W 015°55'613.0
2018-Jan-10 21:30N 28°33' W 015°50'713.1
2018-Jan-10 21:00N 28°38' W 015°45'713.1
2018-Jan-10 20:30N 28°43' W 015°41'612.8
2018-Jan-10 20:00N 28°49' W 015°38'712.6
2018-Jan-10 19:29N 28°55' W 015°34'712.8
2018-Jan-10 18:55N 29°01' W 015°30'512.9
2018-Jan-10 18:30N 29°05' W 015°26'713.0
2018-Jan-10 17:59N 29°11' W 015°23'613.1
2018-Jan-10 17:30N 29°17' W 015°19'612.9
2018-Jan-10 17:00N 29°22' W 015°16'713.0
2018-Jan-10 16:30N 29°28' W 015°12'713.1
2018-Jan-10 16:00N 29°34' W 015°08'61612.4
2018-Jan-08 14:09N 35°57' W 005°35'210.7
2018-Jan-08 14:00N 35°58' W 005°34'510.0
2018-Jan-08 13:30N 35°60' W 005°28'5 9.6
2018-Jan-08 13:00N 36°02' W 005°22'4 7.3
2018-Jan-08 12:30N 36°04' W 005°19'1 1.4
2018-Jan-08 12:00N 36°04' W 005°19'1 2.9
2018-Jan-08 11:30N 36°04' W 005°21'1 2.1
2018-Jan-08 11:00N 36°04' W 005°22'1 1.8
2018-Jan-08 10:30N 36°04' W 005°21'4 7.2
2018-Jan-08 10:00N 36°04' W 005°16'510.5
2018-Jan-08 09:30N 36°04' W 005°10'9411.5
2018-Jan-08 01:16N 36°12' W 003°13'312.1
2018-Jan-08 01:00N 36°13' W 003°10'612.0
2018-Jan-08 00:30N 36°13' W 003°02'612.5
2018-Jan-08 00:00N 36°14' W 002°55'612.0
2018-Jan-07 23:30N 36°15' W 002°47'611.7
2018-Jan-07 23:00N 36°15' W 002°40'611.5
2018-Jan-07 22:30N 36°16' W 002°33'611.7
2018-Jan-07 22:00N 36°16' W 002°26'611.8
2018-Jan-07 21:30N 36°17' W 002°18'611.7
2018-Jan-07 21:00N 36°18' W 002°11'611.3
2018-Jan-07 20:30N 36°19' W 002°04'612.0
2018-Jan-07 20:00N 36°20' W 001°57'612.0
2018-Jan-07 19:30N 36°20' W 001°49'611.5
2018-Jan-07 19:00N 36°21' W 001°42'611.1
2018-Jan-07 18:30N 36°22' W 001°36'510.5
2018-Jan-07 18:00N 36°23' W 001°29'611.2
2018-Jan-07 17:30N 36°24' W 001°22'42111.6
2018-Jan-06 05:13N 37°32' E 007°17'312.9
2018-Jan-06 05:00N 37°33' E 007°21'613.2
2018-Jan-06 04:30N 37°34' E 007°29'713.4
2018-Jan-06 04:00N 37°34' E 007°37'713.4
2018-Jan-06 03:30N 37°35' E 007°46'713.0
2018-Jan-06 02:57N 37°36' E 007°55'612.8
2018-Jan-06 02:30N 37°37' E 008°02'5912.5
2018-Jan-05 21:46N 37°41' E 009°16'21911.5
2018-Jan-05 02:45N 36°40' E 013°41'312.0
2018-Jan-05 02:30N 36°39' E 013°44'711.6
2018-Jan-05 01:56N 36°37' E 013°52'511.1
2018-Jan-05 01:30N 36°36' E 013°58'511.0
2018-Jan-05 01:00N 36°34' E 014°04'611.0
2018-Jan-05 00:30N 36°32' E 014°11'510.6
2018-Jan-05 00:00N 36°31' E 014°17'611.2
2018-Jan-04 23:30N 36°29' E 014°24'611.5
2018-Jan-04 23:00N 36°27' E 014°30'611.2
2018-Jan-04 22:30N 36°26' E 014°37'611.2
2018-Jan-04 21:59N 36°26' E 014°44'41611.3
2018-Jan-03 09:09N 36°37' E 023°21'1513.5
2018-Jan-03 08:01N 36°50' E 023°31'013.6
2018-Jan-03 08:00N 36°50' E 023°31'813.6
2018-Jan-03 07:27N 36°57' E 023°36'613.6
2018-Jan-03 06:59N 37°02' E 023°40'813.5
2018-Jan-03 06:25N 37°09' E 023°45'813.7
2018-Jan-03 05:49N 37°16' E 023°51'513.6
2018-Jan-03 05:29N 37°20' E 023°54'613.1
2018-Jan-03 05:00N 37°25' E 023°58'713.1
2018-Jan-03 04:30N 37°30' E 024°03'713.7
2018-Jan-03 04:00N 37°36' E 024°07'713.3
2018-Jan-03 03:30N 37°42' E 024°11'612.6
2018-Jan-03 03:00N 37°46' E 024°17'612.8
2018-Jan-03 02:30N 37°50' E 024°24'612.9
2018-Jan-03 02:00N 37°54' E 024°30'712.9
2018-Jan-03 01:29N 37°59' E 024°36'1513.4
2018-Jan-03 00:24N 38°12' E 024°43'10012.9
2018-Jan-02 16:36N 39°42' E 025°40'513.1
2018-Jan-02 16:14N 39°47' E 025°43'  

Dump ship's entire track history